HECA/CAI METAR and TAF weather

Enter ICAO airport designator
Station Type Date Time Source
HECA METAR 2019/02/16 03:00 UTC NOAA

HECA 160300Z 20007KT 9999 SCT025 11/08 Q1019 NOSIG


Station Type Date Time Source
HECA Decoded METAR 2019/02/16 03:00 UTC NOAA

Cairo Airport, Egypt (HECA) 30-08N 031-24E 74M
Feb 15, 2019 - 10:00 PM EST / 2019.02.16 0300 UTC
Wind: from the SSW (200 degrees) at 8 MPH (7 KT):0
Visibility: greater than 7 mile(s):0
Sky conditions: partly cloudy
Temperature: 51 F (11 C)
Dew Point: 46 F (8 C)
Relative Humidity: 81%
Pressure (altimeter): 30.09 in. Hg (1019 hPa)
ob: HECA 160300Z 20007KT 9999 SCT025 11/08 Q1019 NOSIG
cycle: 3

Station Type Date Time Source
HECA TAF 2019/02/16 18:40 UTC NOAA

TAF HECA 160004Z 2418/2524 33010KT 9999 BKN025
TEMPO 2503/2506 VRB03KT 4000 BR


Example: see airport list